Aydlett, North Carolina
Current Conditions -  °F | °C
As of 11:10 AM on Sunday 21 Dec 2014 (Local Time) from KONX Reporting Station
Overcast Overcast  
Wind Chill:   Ceiling: 7000
Heat Index:   Visibility: 10mi
Dew Point: -1°   Wind: 10mph
Humidity: 61%   Direction: 20°NNE
Pressure: 30.34"   Gusts: NA
Location:  36.33°N, 75.91°W
Report Text: KONX 211610Z AUTO 02009KT 10SM OVC070 06/M01 A3034 RMK AO2 T00631007
Loading
Personal Weather Stations






























Interactive Weather Map New forecast layout! Learn more

10-Day Weather Forecast

Advertisements
Track Severe Weather on mobile